createdAt,value
2023-01-29T00:01:56.048Z,20.52
2023-01-29T00:04:23.188Z,18.55
2023-01-29T00:06:50.071Z,20.75
2023-01-29T00:09:16.827Z,20.27
2023-01-29T00:11:43.624Z,20.33
2023-01-29T00:14:10.431Z,19.73
2023-01-29T00:16:37.235Z,19.88
2023-01-29T00:19:04.059Z,22.95
2023-01-29T00:21:33.478Z,21.30
2023-01-29T00:24:00.301Z,21.85
2023-01-29T00:26:27.448Z,21.05
2023-01-29T00:28:54.611Z,23.20
2023-01-29T00:31:23.702Z,28.98
2023-01-29T00:33:50.932Z,38.42
2023-01-29T00:36:19.280Z,24.77
2023-01-29T00:38:54.511Z,21.90
2023-01-29T00:41:41.993Z,23.08
2023-01-29T00:44:27.468Z,24.15
2023-01-29T00:46:54.768Z,23.17
2023-01-29T00:49:22.080Z,22.23
2023-01-29T00:52:08.907Z,20.95
2023-01-29T00:54:36.008Z,22.35
2023-01-29T00:57:03.989Z,19.60
2023-01-29T00:59:31.902Z,22.85
2023-01-29T01:02:17.316Z,20.88
2023-01-29T01:04:44.089Z,24.23
2023-01-29T01:09:55.885Z,21.20
2023-01-29T01:12:22.918Z,23.33
2023-01-29T01:14:49.711Z,19.83
2023-01-29T01:17:16.632Z,21.50
2023-01-29T01:19:43.467Z,19.48
2023-01-29T01:22:10.419Z,20.67
2023-01-29T01:24:38.078Z,20.98
2023-01-29T01:27:05.721Z,19.38
2023-01-29T01:29:32.636Z,21.02
2023-01-29T01:31:59.880Z,21.95
2023-01-29T01:34:29.449Z,23.25
2023-01-29T01:36:56.404Z,19.70
2023-01-29T01:39:24.488Z,21.05
2023-01-29T01:41:55.898Z,21.77
2023-01-29T01:44:50.404Z,20.80
2023-01-29T01:47:24.710Z,21.17
2023-01-29T01:49:52.621Z,22.13
2023-01-29T01:52:20.827Z,22.20
2023-01-29T01:54:48.131Z,20.05
2023-01-29T01:57:24.917Z,20.52
2023-01-29T02:00:01.176Z,19.88
2023-01-29T02:02:46.693Z,24.63
2023-01-29T02:05:33.672Z,23.98
2023-01-29T02:08:19.027Z,20.70
2023-01-29T02:10:47.373Z,20.25
2023-01-29T02:13:18.673Z,21.40
2023-01-29T02:15:48.747Z,20.23
2023-01-29T02:18:17.772Z,22.73
2023-01-29T02:21:29.043Z,21.20
2023-01-29T02:24:27.074Z,19.20
2023-01-29T02:27:23.230Z,19.95
2023-01-29T02:30:12.264Z,20.75
2023-01-29T02:32:54.763Z,18.92
2023-01-29T02:35:34.569Z,22.50
2023-01-29T02:38:35.443Z,22.35
2023-01-29T02:41:15.940Z,23.48
2023-01-29T02:43:58.889Z,23.08
2023-01-29T02:46:36.116Z,22.92
2023-01-29T02:49:27.648Z,22.40
2023-01-29T02:52:03.727Z,21.83
2023-01-29T02:54:55.299Z,23.20
2023-01-29T02:57:29.132Z,23.95
2023-01-29T03:00:02.306Z,22.40
2023-01-29T03:02:43.840Z,22.67
2023-01-29T03:05:15.330Z,25.83
2023-01-29T03:07:58.562Z,21.63
2023-01-29T03:10:49.559Z,23.80
2023-01-29T03:13:29.172Z,23.85
2023-01-29T03:16:20.998Z,23.15
2023-01-29T03:19:23.253Z,22.77
2023-01-29T03:22:01.817Z,25.38
2023-01-29T03:25:21.828Z,26.20
2023-01-29T03:28:09.759Z,23.92
2023-01-29T03:31:18.850Z,24.75
2023-01-29T03:34:07.839Z,24.13
2023-01-29T03:36:45.190Z,24.23
2023-01-29T03:39:14.610Z,26.92
2023-01-29T03:42:23.753Z,23.27
2023-01-29T03:45:00.985Z,25.05
2023-01-29T03:47:51.432Z,24.00
2023-01-29T03:50:43.247Z,25.20
2023-01-29T03:53:29.947Z,27.77
2023-01-29T03:56:37.156Z,27.77
2023-01-29T03:59:29.859Z,24.20
2023-01-29T04:02:21.912Z,24.98
2023-01-29T04:04:51.947Z,26.38
2023-01-29T04:07:24.372Z,27.60
2023-01-29T04:10:02.349Z,26.17
2023-01-29T04:12:48.155Z,28.65
2023-01-29T04:15:17.490Z,25.48
2023-01-29T04:17:56.329Z,26.10
2023-01-29T04:20:36.466Z,25.70
2023-01-29T04:23:07.099Z,28.67
2023-01-29T04:25:45.547Z,27.42
2023-01-29T04:28:25.931Z,28.23
2023-01-29T04:31:00.652Z,26.90
2023-01-29T04:33:35.148Z,28.40
2023-01-29T04:36:10.924Z,28.67
2023-01-29T04:38:54.399Z,28.08
2023-01-29T04:41:28.936Z,31.63
2023-01-29T04:44:01.830Z,29.48
2023-01-29T04:46:47.620Z,28.48
2023-01-29T04:49:27.611Z,27.80
2023-01-29T04:52:15.588Z,27.77
2023-01-29T04:55:09.965Z,31.65
2023-01-29T04:57:46.190Z,26.80
2023-01-29T05:00:24.516Z,29.88
2023-01-29T05:02:51.460Z,28.98
2023-01-29T05:05:20.016Z,28.27
2023-01-29T05:07:48.194Z,28.73
2023-01-29T05:10:19.162Z,28.90
2023-01-29T05:12:51.309Z,29.23
2023-01-29T05:15:23.540Z,31.08
2023-01-29T05:17:50.363Z,26.98
2023-01-29T05:20:17.872Z,32.75
2023-01-29T05:22:45.536Z,30.55
2023-01-29T05:25:22.298Z,30.27
2023-01-29T05:28:16.243Z,29.98
2023-01-29T05:30:51.756Z,31.83
2023-01-29T05:33:29.916Z,30.05
2023-01-29T05:35:59.356Z,31.67
2023-01-29T05:38:26.352Z,30.52
2023-01-29T05:40:53.982Z,33.10
2023-01-29T05:43:23.272Z,30.13
2023-01-29T05:45:58.699Z,31.98
2023-01-29T05:48:28.728Z,32.22
2023-01-29T05:51:00.444Z,30.88
2023-01-29T05:53:29.166Z,30.80
2023-01-29T05:55:57.202Z,32.40
2023-01-29T05:58:24.603Z,32.05
2023-01-29T06:00:51.303Z,31.70
2023-01-29T06:03:18.135Z,31.50
2023-01-29T06:05:45.030Z,31.52
2023-01-29T06:08:12.098Z,33.22
2023-01-29T06:10:38.822Z,31.67
2023-01-29T06:13:05.558Z,32.03
2023-01-29T06:15:32.445Z,33.55
2023-01-29T06:17:59.254Z,33.65
2023-01-29T06:20:26.646Z,33.17
2023-01-29T06:22:53.384Z,32.92
2023-01-29T06:25:20.151Z,34.42
2023-01-29T06:27:50.967Z,31.90
2023-01-29T06:30:18.208Z,36.67
2023-01-29T06:32:45.052Z,31.38
2023-01-29T06:35:11.843Z,33.28
2023-01-29T06:37:38.720Z,33.97
2023-01-29T06:40:06.184Z,33.70
2023-01-29T06:42:35.467Z,32.55
2023-01-29T06:45:02.156Z,35.47
2023-01-29T06:47:29.027Z,33.72
2023-01-29T06:49:55.869Z,33.90
2023-01-29T06:52:22.671Z,33.53
2023-01-29T06:54:49.396Z,35.28
2023-01-29T06:57:16.298Z,33.38
2023-01-29T06:59:43.094Z,32.25
2023-01-29T07:02:10.595Z,31.92
2023-01-29T07:04:37.809Z,33.67
2023-01-29T07:07:05.222Z,32.55
2023-01-29T07:09:32.075Z,36.55
2023-01-29T07:11:58.824Z,29.83
2023-01-29T07:14:25.664Z,34.08
2023-01-29T07:16:52.597Z,34.38
2023-01-29T07:19:19.295Z,33.92
2023-01-29T07:21:46.276Z,33.60
2023-01-29T07:24:13.211Z,33.97
2023-01-29T07:26:39.925Z,54.50
2023-01-29T07:29:06.748Z,94.47
2023-01-29T07:31:33.983Z,40.05
2023-01-29T07:34:00.848Z,58.50
2023-01-29T07:36:28.317Z,41.42
2023-01-29T07:38:55.336Z,33.33
2023-01-29T07:41:22.224Z,37.08
2023-01-29T07:43:49.057Z,34.58
2023-01-29T07:46:15.940Z,36.67
2023-01-29T07:48:42.782Z,38.85
2023-01-29T07:51:09.584Z,35.00
2023-01-29T07:53:36.962Z,40.03
2023-01-29T07:56:03.955Z,40.67
2023-01-29T07:58:30.805Z,38.22
2023-01-29T08:00:57.702Z,36.75
2023-01-29T08:03:24.501Z,38.42
2023-01-29T08:05:51.275Z,37.88
2023-01-29T08:08:19.260Z,37.67
2023-01-29T08:10:46.104Z,39.60
2023-01-29T08:13:12.929Z,36.50
2023-01-29T08:15:44.120Z,41.97
2023-01-29T08:18:11.216Z,39.05
2023-01-29T08:20:38.340Z,42.20
2023-01-29T08:23:07.937Z,40.42
2023-01-29T08:25:36.059Z,39.10
2023-01-29T08:28:04.179Z,40.03
2023-01-29T08:30:33.506Z,40.22
2023-01-29T08:33:00.670Z,36.55
2023-01-29T08:35:27.729Z,36.25
2023-01-29T08:37:59.435Z,38.80
2023-01-29T08:40:27.891Z,36.28
2023-01-29T08:43:08.688Z,37.00
2023-01-29T08:45:38.132Z,39.38
2023-01-29T08:48:05.493Z,36.97
2023-01-29T08:50:34.750Z,41.60
2023-01-29T08:53:07.874Z,42.13
2023-01-29T08:55:39.604Z,41.50
2023-01-29T08:58:07.701Z,37.10
2023-01-29T09:00:35.536Z,40.03
2023-01-29T09:03:03.186Z,37.22
2023-01-29T09:05:29.931Z,41.67
2023-01-29T09:07:58.033Z,38.20
2023-01-29T09:10:26.099Z,38.67
2023-01-29T09:12:52.801Z,39.78
2023-01-29T09:15:20.052Z,36.25
2023-01-29T09:17:47.015Z,38.70
2023-01-29T09:20:14.199Z,37.47
2023-01-29T09:22:41.723Z,37.08
2023-01-29T09:25:09.540Z,43.00
2023-01-29T09:27:36.302Z,38.40
2023-01-29T09:30:04.669Z,38.13
2023-01-29T09:33:01.950Z,39.15
2023-01-29T09:35:19.135Z,38.40
2023-01-29T09:37:49.923Z,32.88
2023-01-29T09:40:27.091Z,34.80
2023-01-29T09:43:07.213Z,33.17
2023-01-29T09:45:35.317Z,34.05
2023-01-29T09:48:05.642Z,34.10
2023-01-29T09:50:40.072Z,34.00
2023-01-29T09:53:10.781Z,31.63
2023-01-29T09:55:41.315Z,36.30
2023-01-29T09:58:25.292Z,33.13
2023-01-29T10:01:07.237Z,34.15
2023-01-29T10:03:55.803Z,32.60
2023-01-29T10:06:45.937Z,31.17
2023-01-29T10:09:57.430Z,30.98
2023-01-29T10:12:44.756Z,29.50
2023-01-29T10:15:22.904Z,32.03
2023-01-29T10:18:09.861Z,31.65
2023-01-29T10:20:53.358Z,30.20
2023-01-29T10:23:38.312Z,29.60
2023-01-29T10:26:05.023Z,32.85
2023-01-29T10:28:38.110Z,32.65
2023-01-29T10:31:10.074Z,29.35
2023-01-29T10:33:49.227Z,35.42
2023-01-29T10:36:34.191Z,30.48
2023-01-29T10:39:00.926Z,31.15
2023-01-29T10:42:09.592Z,34.15
2023-01-29T10:45:08.525Z,31.65
2023-01-29T10:47:57.225Z,32.13
2023-01-29T10:50:52.205Z,29.00
2023-01-29T10:53:41.904Z,54.00
2023-01-29T10:56:23.439Z,30.25
2023-01-29T10:59:02.807Z,28.40
2023-01-29T11:01:29.684Z,26.05
2023-01-29T11:04:00.754Z,28.10
2023-01-29T11:06:35.498Z,28.00
2023-01-29T11:09:24.948Z,28.40
2023-01-29T11:12:05.763Z,31.83
2023-01-29T11:14:55.445Z,28.55
2023-01-29T11:17:24.608Z,29.85
2023-01-29T11:19:53.441Z,27.95
2023-01-29T11:22:25.113Z,39.42
2023-01-29T11:25:10.402Z,32.78
2023-01-29T11:27:44.770Z,30.67
2023-01-29T11:30:30.050Z,25.80
2023-01-29T11:33:11.928Z,28.05
2023-01-29T11:35:38.761Z,26.42
2023-01-29T11:38:16.947Z,23.70
2023-01-29T11:40:44.544Z,24.55
2023-01-29T11:43:30.204Z,23.70
2023-01-29T11:46:17.304Z,24.75
2023-01-29T11:48:50.114Z,22.02
2023-01-29T11:51:38.087Z,26.38
2023-01-29T11:54:05.683Z,23.73
2023-01-29T11:56:41.321Z,22.83
2023-01-29T11:59:37.642Z,23.50
2023-01-29T12:02:16.508Z,23.60
2023-01-29T12:04:43.408Z,21.38
2023-01-29T12:07:16.513Z,23.33
2023-01-29T12:09:51.880Z,19.52
2023-01-29T12:12:30.881Z,21.50
2023-01-29T12:15:26.478Z,24.17
2023-01-29T12:18:25.844Z,23.40
2023-01-29T12:21:03.160Z,20.60
2023-01-29T12:23:57.019Z,25.88
2023-01-29T12:26:43.084Z,20.98
2023-01-29T12:29:25.938Z,22.33
2023-01-29T12:32:02.989Z,22.98
2023-01-29T12:35:23.822Z,21.75
2023-01-29T12:38:09.857Z,22.60
2023-01-29T12:41:23.424Z,18.92
2023-01-29T12:43:56.058Z,19.20
2023-01-29T12:46:27.926Z,23.63
2023-01-29T12:48:57.772Z,38.58
2023-01-29T12:51:34.468Z,29.00
2023-01-29T12:54:14.114Z,31.30
2023-01-29T12:56:55.760Z,24.23
2023-01-29T12:59:25.286Z,19.65
2023-01-29T13:01:59.593Z,19.67
2023-01-29T13:04:41.154Z,19.77
2023-01-29T13:07:24.688Z,20.48
2023-01-29T13:09:57.164Z,19.55
2023-01-29T13:12:24.564Z,21.90
2023-01-29T13:15:20.655Z,20.75
2023-01-29T13:17:52.891Z,22.15
2023-01-29T13:20:25.624Z,21.88
2023-01-29T13:22:56.357Z,21.58
2023-01-29T13:25:23.444Z,21.70
2023-01-29T13:27:50.790Z,21.98
2023-01-29T13:30:29.600Z,21.45
2023-01-29T13:33:09.134Z,25.65
2023-01-29T13:35:42.405Z,23.92
2023-01-29T13:38:28.346Z,23.70
2023-01-29T13:41:06.393Z,23.80
2023-01-29T13:43:37.607Z,20.20
2023-01-29T13:46:18.338Z,25.88
2023-01-29T13:48:47.928Z,24.77
2023-01-29T13:51:20.878Z,22.80
2023-01-29T13:54:05.822Z,23.23
2023-01-29T13:56:43.797Z,26.40
2023-01-29T13:59:44.745Z,21.63
2023-01-29T14:02:23.264Z,24.98
2023-01-29T14:04:50.087Z,28.08
2023-01-29T14:07:45.496Z,26.17
2023-01-29T14:10:21.841Z,23.52
2023-01-29T14:13:23.765Z,25.80
2023-01-29T14:15:59.602Z,23.45
2023-01-29T14:18:28.305Z,25.95
2023-01-29T14:21:05.627Z,25.75
2023-01-29T14:23:46.525Z,24.83
2023-01-29T14:26:45.132Z,25.55
2023-01-29T14:29:37.999Z,26.30
2023-01-29T14:32:07.423Z,25.35
2023-01-29T14:34:35.911Z,24.92
2023-01-29T14:37:19.308Z,25.92
2023-01-29T14:39:56.178Z,25.73
2023-01-29T14:42:35.638Z,27.60
2023-01-29T14:45:11.407Z,27.08
2023-01-29T14:47:38.156Z,27.65
2023-01-29T14:50:26.722Z,24.52
2023-01-29T14:52:54.529Z,23.73
2023-01-29T14:55:31.851Z,25.27
2023-01-29T14:57:59.125Z,26.80
2023-01-29T15:00:30.150Z,29.02
2023-01-29T15:03:01.901Z,25.80
2023-01-29T15:05:37.041Z,24.77
2023-01-29T15:08:12.985Z,30.95
2023-01-29T15:10:48.262Z,27.13
2023-01-29T15:13:24.530Z,28.58
2023-01-29T15:15:56.874Z,27.00
2023-01-29T15:18:42.803Z,25.23
2023-01-29T15:21:14.810Z,26.73
2023-01-29T15:23:43.224Z,29.90
2023-01-29T15:26:16.033Z,22.88
2023-01-29T15:28:47.112Z,24.63
2023-01-29T15:31:18.381Z,26.50
2023-01-29T15:33:47.804Z,29.10
2023-01-29T15:36:26.853Z,27.35
2023-01-29T15:39:19.616Z,25.63
2023-01-29T15:41:47.005Z,23.20
2023-01-29T15:44:22.377Z,26.55
2023-01-29T15:46:54.340Z,27.27
2023-01-29T15:49:30.868Z,24.58
2023-01-29T15:52:04.528Z,29.48
2023-01-29T15:54:34.743Z,25.08
2023-01-29T15:57:02.729Z,23.98
2023-01-29T15:59:34.607Z,22.45
2023-01-29T16:02:29.564Z,27.52
2023-01-29T16:04:56.485Z,28.73
2023-01-29T16:07:23.417Z,25.05
2023-01-29T16:09:52.407Z,26.33
2023-01-29T16:12:19.804Z,23.23
2023-01-29T16:14:49.393Z,24.77
2023-01-29T16:17:30.578Z,23.75
2023-01-29T16:20:02.107Z,22.80
2023-01-29T16:22:34.927Z,27.65
2023-01-29T16:25:06.443Z,24.60
2023-01-29T16:27:34.750Z,23.25
2023-01-29T16:30:02.109Z,25.98
2023-01-29T16:32:30.492Z,21.15
2023-01-29T16:35:00.565Z,22.55
2023-01-29T16:37:31.013Z,24.02
2023-01-29T16:39:58.020Z,26.15
2023-01-29T16:42:30.256Z,26.27
2023-01-29T16:45:01.978Z,22.60
2023-01-29T16:47:43.860Z,24.52
2023-01-29T16:50:40.475Z,25.75
2023-01-29T16:53:19.656Z,21.35
2023-01-29T16:55:49.587Z,23.35
2023-01-29T16:58:30.354Z,25.83
2023-01-29T17:01:09.130Z,24.15
2023-01-29T17:03:37.172Z,27.23
2023-01-29T17:06:38.003Z,24.00
2023-01-29T17:09:05.774Z,21.23
2023-01-29T17:11:39.872Z,23.58
2023-01-29T17:14:08.076Z,22.42
2023-01-29T17:16:37.515Z,24.02
2023-01-29T17:19:18.376Z,22.05
2023-01-29T17:21:45.824Z,24.42
2023-01-29T17:24:12.824Z,23.50
2023-01-29T17:26:39.950Z,23.30
2023-01-29T17:29:08.639Z,21.35
2023-01-29T17:31:35.452Z,22.10
2023-01-29T17:34:02.209Z,35.20
2023-01-29T17:36:28.981Z,48.15
2023-01-29T17:38:55.682Z,31.13
2023-01-29T17:41:28.188Z,37.33
2023-01-29T17:43:55.049Z,23.52
2023-01-29T17:46:22.633Z,22.55
2023-01-29T17:48:49.497Z,22.23
2023-01-29T17:51:18.142Z,17.02
2023-01-29T17:53:46.977Z,17.92
2023-01-29T17:56:16.935Z,21.00
2023-01-29T17:58:44.038Z,22.70
2023-01-29T18:01:10.790Z,19.02
2023-01-29T18:03:37.603Z,18.55
2023-01-29T18:06:07.913Z,20.33
2023-01-29T18:08:36.354Z,17.92
2023-01-29T18:11:03.173Z,17.38
2023-01-29T18:13:30.159Z,19.02
2023-01-29T18:15:56.971Z,32.28
2023-01-29T18:18:24.568Z,23.60
2023-01-29T18:20:51.603Z,36.53
2023-01-29T18:23:18.364Z,23.80
2023-01-29T18:25:45.263Z,32.92
2023-01-29T18:28:19.587Z,20.48
2023-01-29T18:30:47.506Z,21.65
2023-01-29T18:33:15.686Z,19.65
2023-01-29T18:35:48.214Z,19.42
2023-01-29T18:38:15.364Z,22.60
2023-01-29T18:40:42.190Z,20.85
2023-01-29T18:43:09.197Z,23.33
2023-01-29T18:45:36.079Z,22.92
2023-01-29T18:48:04.316Z,17.92
2023-01-29T18:50:31.243Z,18.13
2023-01-29T18:52:57.967Z,21.13
2023-01-29T18:55:26.491Z,19.73
2023-01-29T18:58:28.820Z,17.38
2023-01-29T19:00:41.101Z,22.05
2023-01-29T19:03:07.861Z,20.63
2023-01-29T19:05:34.755Z,20.85
2023-01-29T19:08:01.849Z,18.88
2023-01-29T19:10:28.826Z,22.13
2023-01-29T19:12:55.504Z,21.83
2023-01-29T19:15:22.890Z,21.42
2023-01-29T19:17:53.210Z,17.52
2023-01-29T19:20:20.407Z,20.52
2023-01-29T19:22:47.148Z,20.17
2023-01-29T19:25:14.048Z,18.88
2023-01-29T19:27:40.910Z,18.52
2023-01-29T19:30:08.539Z,17.40
2023-01-29T19:32:35.447Z,22.00
2023-01-29T19:35:02.261Z,20.98
2023-01-29T19:37:30.813Z,19.25
2023-01-29T19:39:57.821Z,19.58
2023-01-29T19:42:24.640Z,17.25
2023-01-29T19:44:52.271Z,21.30
2023-01-29T19:47:19.187Z,19.27
2023-01-29T19:49:46.736Z,16.10
2023-01-29T19:52:49.848Z,18.52
2023-01-29T19:55:18.044Z,18.50
2023-01-29T19:57:45.155Z,19.60
2023-01-29T20:00:14.755Z,20.65
2023-01-29T20:02:41.469Z,19.77
2023-01-29T20:05:11.174Z,18.00
2023-01-29T20:07:39.790Z,16.38
2023-01-29T20:10:09.642Z,16.85
2023-01-29T20:12:36.881Z,18.38
2023-01-29T20:15:04.104Z,21.17
2023-01-29T20:17:30.944Z,40.88
2023-01-29T20:19:57.632Z,34.47
2023-01-29T20:22:26.630Z,87.68
2023-01-29T20:24:53.772Z,35.50
2023-01-29T20:27:20.587Z,26.67
2023-01-29T20:29:47.351Z,30.75
2023-01-29T20:32:14.576Z,26.52
2023-01-29T20:34:41.509Z,19.10
2023-01-29T20:37:08.182Z,18.23
2023-01-29T20:39:34.927Z,19.05
2023-01-29T20:42:01.666Z,20.45
2023-01-29T20:44:28.635Z,18.27
2023-01-29T20:46:56.253Z,16.95
2023-01-29T20:49:23.038Z,21.95
2023-01-29T20:51:50.001Z,18.00
2023-01-29T20:54:16.789Z,18.77
2023-01-29T20:56:46.139Z,15.95
2023-01-29T20:59:13.992Z,17.67
2023-01-29T21:01:41.547Z,18.08
2023-01-29T21:04:08.198Z,18.00
2023-01-29T21:06:35.094Z,15.18
2023-01-29T21:09:01.900Z,15.63
2023-01-29T21:11:28.713Z,18.55
2023-01-29T21:13:57.721Z,14.60
2023-01-29T21:16:26.098Z,15.55
2023-01-29T21:18:56.719Z,14.57
2023-01-29T21:21:23.833Z,16.50
2023-01-29T21:23:50.523Z,14.38
2023-01-29T21:26:18.748Z,16.05
2023-01-29T21:28:46.008Z,15.40
2023-01-29T21:31:17.560Z,15.20
2023-01-29T21:33:44.604Z,16.02
2023-01-29T21:36:11.771Z,15.30
2023-01-29T21:38:39.194Z,16.60
2023-01-29T21:41:08.751Z,15.43
2023-01-29T21:43:35.999Z,15.52
2023-01-29T21:46:05.042Z,13.68
2023-01-29T21:48:32.423Z,16.20
2023-01-29T21:50:59.120Z,16.50
2023-01-29T21:53:25.943Z,13.93
2023-01-29T21:55:52.818Z,17.98
2023-01-29T21:58:20.450Z,16.13
2023-01-29T22:00:48.697Z,15.27
2023-01-29T22:03:15.835Z,16.00
2023-01-29T22:05:42.788Z,17.63
2023-01-29T22:08:09.863Z,18.83
2023-01-29T22:10:36.959Z,19.10
2023-01-29T22:13:04.047Z,15.45
2023-01-29T22:15:30.771Z,18.42
2023-01-29T22:17:57.614Z,16.40
2023-01-29T22:20:29.957Z,14.98
2023-01-29T22:22:59.319Z,17.10
2023-01-29T22:25:26.863Z,16.33
2023-01-29T22:27:53.813Z,15.82
2023-01-29T22:30:21.668Z,17.85
2023-01-29T22:32:48.634Z,18.95
2023-01-29T22:35:15.487Z,17.73
2023-01-29T22:37:42.500Z,19.23
2023-01-29T22:40:10.038Z,16.45
2023-01-29T22:42:36.737Z,25.20
2023-01-29T22:45:03.585Z,32.88
2023-01-29T22:47:32.792Z,24.92
2023-01-29T22:49:59.567Z,23.58
2023-01-29T22:52:27.913Z,40.10
2023-01-29T22:54:54.704Z,19.98
2023-01-29T22:57:21.488Z,20.55
2023-01-29T22:59:48.239Z,21.35
2023-01-29T23:02:15.001Z,19.55
2023-01-29T23:04:41.876Z,19.80
2023-01-29T23:07:08.674Z,18.08
2023-01-29T23:09:35.438Z,21.15
2023-01-29T23:12:02.156Z,20.70
2023-01-29T23:14:28.864Z,20.20
2023-01-29T23:16:55.539Z,20.15
2023-01-29T23:19:22.516Z,22.70
2023-01-29T23:21:49.390Z,21.95
2023-01-29T23:24:16.445Z,22.98
2023-01-29T23:27:02.034Z,23.77
2023-01-29T23:29:28.836Z,24.13
2023-01-29T23:31:55.587Z,23.20
2023-01-29T23:34:22.374Z,22.48
2023-01-29T23:36:49.194Z,21.50
2023-01-29T23:39:16.355Z,22.55
2023-01-29T23:41:43.697Z,21.30
2023-01-29T23:44:10.575Z,21.95
2023-01-29T23:46:37.434Z,21.50
2023-01-29T23:49:04.246Z,21.83
2023-01-29T23:51:31.180Z,22.63
2023-01-29T23:53:58.291Z,24.08
2023-01-29T23:56:25.442Z,22.73
2023-01-29T23:58:56.156Z,24.60
